createdAt,value
2023-09-03T00:00:04.351Z,2.1
2023-09-03T00:05:04.472Z,2.3
2023-09-03T00:10:04.372Z,2.2
2023-09-03T00:15:04.559Z,2.3
2023-09-03T00:20:05.339Z,2.3
2023-09-03T00:25:01.294Z,2.3
2023-09-03T00:30:01.731Z,2
2023-09-03T00:35:01.684Z,2.1
2023-09-03T00:40:02.195Z,2.1
2023-09-03T00:45:02.343Z,2.2
2023-09-03T00:50:03.027Z,1.9
2023-09-03T00:55:01.130Z,2.2
2023-09-03T00:59:33.550Z,2.1
2023-09-03T01:04:33.666Z,2.3
2023-09-03T01:09:33.538Z,2.2
2023-09-03T01:14:33.066Z,1.9
2023-09-03T01:19:33.613Z,2.2
2023-09-03T01:24:33.280Z,2
2023-09-03T01:29:33.242Z,1.9
2023-09-03T01:34:30.504Z,2
2023-09-03T01:39:29.888Z,1.8
2023-09-03T01:44:29.729Z,1.9
2023-09-03T01:49:34.690Z,1.9
2023-09-03T01:54:29.211Z,2.1
2023-09-03T01:59:29.197Z,2.1
2023-09-03T02:04:29.533Z,2
2023-09-03T02:09:29.273Z,2.1
2023-09-03T02:14:30.424Z,2.2
2023-09-03T02:19:26.568Z,1.9
2023-09-03T02:24:25.931Z,1.9
2023-09-03T02:29:25.811Z,1.8
2023-09-03T02:34:26.205Z,2
2023-09-03T02:39:25.750Z,2
2023-09-03T02:44:25.860Z,1.9
2023-09-03T02:49:26.237Z,2
2023-09-03T02:54:26.062Z,1.8
2023-09-03T02:59:23.597Z,1.9
2023-09-03T03:01:25.396Z,1.9
2023-09-03T03:05:45.196Z,2.1
2023-09-03T03:10:45.456Z,2.1
2023-09-03T03:15:45.150Z,2.1
2023-09-03T03:20:45.139Z,1.9
2023-09-03T03:25:45.613Z,2.2
2023-09-03T03:30:45.470Z,2.2
2023-09-03T03:35:43.996Z,2
2023-09-03T03:40:44.161Z,2.1
2023-09-03T03:45:44.093Z,2
2023-09-03T03:50:44.036Z,2
2023-09-03T03:55:43.556Z,2.1
2023-09-03T04:00:05.940Z,2
2023-09-03T04:05:05.799Z,1.9
2023-09-03T04:10:05.494Z,2.2
2023-09-03T04:15:05.406Z,2.1
2023-09-03T04:20:02.889Z,2.1
2023-09-03T04:25:02.250Z,2.6
2023-09-03T04:30:02.000Z,2.9
2023-09-03T04:35:02.365Z,3.6
2023-09-03T04:45:02.485Z,2.8
2023-09-03T04:50:02.138Z,4
2023-09-03T04:55:02.086Z,5.9
2023-09-03T05:00:02.168Z,9.3
2023-09-03T05:05:02.431Z,13.5
2023-09-03T05:10:02.269Z,18
2023-09-03T05:15:02.776Z,22.6
2023-09-03T05:20:02.853Z,27.5
2023-09-03T05:25:03.456Z,33.8
2023-09-03T05:30:04.139Z,40.8
2023-09-03T05:35:01.072Z,48
2023-09-03T05:40:01.627Z,55.3
2023-09-03T05:45:01.884Z,62.8
2023-09-03T05:50:01.624Z,69.3
2023-09-03T05:55:02.098Z,74.6
2023-09-03T05:59:35.209Z,81.5
2023-09-03T06:04:33.764Z,88.4
2023-09-03T06:09:34.104Z,97.2
2023-09-03T06:14:33.930Z,105.3
2023-09-03T06:19:34.484Z,109.3
2023-09-03T06:24:34.229Z,115.3
2023-09-03T06:29:34.311Z,123.5
2023-09-03T06:34:34.792Z,128.6
2023-09-03T06:39:34.751Z,136.1
2023-09-03T06:44:33.385Z,142.5
2023-09-03T06:49:35.753Z,155.2
2023-09-03T06:54:33.582Z,179.6
2023-09-03T06:59:48.789Z,179.8
2023-09-03T07:04:33.197Z,191.9
2023-09-03T07:09:32.753Z,188.1
2023-09-03T07:14:33.197Z,180
2023-09-03T07:19:32.895Z,185.4
2023-09-03T07:24:32.978Z,218.8
2023-09-03T07:29:30.174Z,258.1
2023-09-03T07:34:31.359Z,278.8
2023-09-03T07:39:29.634Z,199.2
2023-09-03T07:49:29.442Z,369.8
2023-09-03T07:54:30.116Z,362.6
2023-09-03T07:59:29.880Z,415.4
2023-09-03T08:01:31.757Z,414.1
2023-09-03T08:06:02.347Z,382.6
2023-09-03T08:11:02.493Z,401
2023-09-03T08:16:15.476Z,387.8
2023-09-03T08:21:03.535Z,440.2
2023-09-03T08:26:04.233Z,502
2023-09-03T08:31:04.682Z,431.3
2023-09-03T08:36:03.070Z,439
2023-09-03T08:41:03.303Z,356.1
2023-09-03T08:46:03.256Z,310.9
2023-09-03T08:51:03.270Z,310.4
2023-09-03T08:56:03.055Z,425.5
2023-09-03T09:00:25.932Z,467.8
2023-09-03T09:05:25.868Z,471
2023-09-03T09:10:24.482Z,486.3
2023-09-03T09:15:24.791Z,471.9
2023-09-03T09:20:24.443Z,517.5
2023-09-03T09:25:24.573Z,520.9
2023-09-03T09:30:24.449Z,458.2
2023-09-03T09:35:24.464Z,495.9
2023-09-03T09:40:24.902Z,503
2023-09-03T09:45:24.775Z,561.3
2023-09-03T09:50:23.192Z,622.2
2023-09-03T09:55:23.407Z,651.4
2023-09-03T10:00:02.056Z,713.9
2023-09-03T10:05:02.170Z,679.3
2023-09-03T10:10:02.805Z,650.2
2023-09-03T10:15:03.292Z,690.5
2023-09-03T10:20:04.214Z,735.9
2023-09-03T10:25:02.503Z,710.9
2023-09-03T10:30:02.582Z,770.2
2023-09-03T10:35:02.422Z,766.5
2023-09-03T10:40:02.670Z,757.9
2023-09-03T10:45:02.591Z,703.8
2023-09-03T10:50:02.988Z,704.3
2023-09-03T10:55:03.864Z,619.4
2023-09-03T10:59:32.415Z,600.7
2023-09-03T11:04:31.961Z,708.7
2023-09-03T11:09:32.116Z,656.3
2023-09-03T11:14:32.239Z,676.6
2023-09-03T11:19:31.594Z,594.8
2023-09-03T11:24:32.313Z,637.2
2023-09-03T11:29:33.852Z,727.5
2023-09-03T11:34:29.677Z,726.4
2023-09-03T11:39:28.979Z,750.6
2023-09-03T11:44:28.763Z,773.7
2023-09-03T11:49:29.024Z,735
2023-09-03T11:54:28.742Z,757
2023-09-03T11:59:33.678Z,752.9
2023-09-03T12:04:29.152Z,689.6
2023-09-03T12:09:28.739Z,687.1
2023-09-03T12:14:29.696Z,796.9
2023-09-03T12:19:25.977Z,581.2
2023-09-03T12:24:25.216Z,675.2
2023-09-03T12:29:29.711Z,802.6
2023-09-03T12:39:25.131Z,581.6
2023-09-03T12:44:28.021Z,713.7
2023-09-03T12:49:27.998Z,492.4
2023-09-03T12:54:26.253Z,482.7
2023-09-03T12:59:22.502Z,598.4
2023-09-03T13:01:24.294Z,624.9
2023-09-03T13:05:44.128Z,580.5
2023-09-03T13:10:44.268Z,653.7
2023-09-03T13:15:43.955Z,727.7
2023-09-03T13:20:44.443Z,543.8
2023-09-03T13:25:59.195Z,474.4
2023-09-03T13:30:50.453Z,541.4
2023-09-03T13:35:42.726Z,316.2
2023-09-03T13:40:43.324Z,437.9
2023-09-03T13:45:43.161Z,314.3
2023-09-03T13:50:43.014Z,581.8
2023-09-03T13:55:42.371Z,448.1
2023-09-03T14:00:04.635Z,476.2
2023-09-03T14:05:04.676Z,461
2023-09-03T14:10:04.209Z,437.9
2023-09-03T14:15:04.146Z,497.4
2023-09-03T14:20:01.711Z,528.7
2023-09-03T14:25:01.239Z,392.6
2023-09-03T14:30:01.474Z,458
2023-09-03T14:35:00.819Z,372.3
2023-09-03T14:40:00.649Z,419.7
2023-09-03T14:45:00.910Z,343.5
2023-09-03T14:50:01.292Z,406.3
2023-09-03T14:55:00.375Z,367.9
2023-09-03T14:59:46.644Z,363.6
2023-09-03T15:04:46.025Z,337.8
2023-09-03T15:09:45.667Z,327.1
2023-09-03T15:14:45.829Z,384.6
2023-09-03T15:19:45.393Z,334.1
2023-09-03T15:24:47.705Z,272.2
2023-09-03T15:29:45.608Z,246.9
2023-09-03T15:34:45.028Z,273.6
2023-09-03T15:39:45.871Z,295.9
2023-09-03T15:44:41.959Z,222.8
2023-09-03T15:49:41.489Z,241.9
2023-09-03T15:54:41.219Z,245.2
2023-09-03T15:59:41.828Z,193.8
2023-09-03T16:04:41.492Z,222.8
2023-09-03T16:09:44.479Z,241
2023-09-03T16:14:41.599Z,245.7
2023-09-03T16:19:42.304Z,178
2023-09-03T16:24:38.381Z,164.2
2023-09-03T16:29:37.991Z,146
2023-09-03T16:34:37.760Z,167.8
2023-09-03T16:39:37.897Z,179.7
2023-09-03T16:44:37.564Z,146.1
2023-09-03T16:49:37.579Z,119.8
2023-09-03T16:54:37.913Z,101.8
2023-09-03T16:59:37.727Z,96.5
2023-09-03T17:04:38.544Z,78.7
2023-09-03T17:09:36.218Z,62.1
2023-09-03T17:14:35.872Z,54.1
2023-09-03T17:19:35.804Z,47.8
2023-09-03T17:24:34.994Z,42.6
2023-09-03T17:29:34.767Z,36.8
2023-09-03T17:34:34.822Z,31.1
2023-09-03T17:39:34.917Z,26.4
2023-09-03T17:44:33.418Z,20.7
2023-09-03T17:49:33.483Z,15.8
2023-09-03T17:54:32.996Z,11.5
2023-09-03T17:59:33.054Z,7.4
2023-09-03T18:09:32.050Z,3.3
2023-09-03T18:14:32.235Z,2.7
2023-09-03T18:19:31.685Z,2.2
2023-09-03T18:24:31.531Z,2
2023-09-03T18:29:38.058Z,4.1
2023-09-03T18:34:28.134Z,4.1
2023-09-03T18:39:27.813Z,4.1
2023-09-03T18:44:27.915Z,4.1
2023-09-03T18:49:27.618Z,4
2023-09-03T18:54:27.504Z,4
2023-09-03T18:59:27.854Z,4
2023-09-03T19:04:27.480Z,4.1
2023-09-03T19:09:28.271Z,4
2023-09-03T19:14:29.385Z,4
2023-09-03T19:19:24.058Z,4
2023-09-03T19:24:24.243Z,4
2023-09-03T19:34:39.148Z,4
2023-09-03T19:39:23.904Z,3.9
2023-09-03T19:44:23.649Z,3.9
2023-09-03T19:49:24.693Z,3.8
2023-09-03T19:54:21.031Z,3.9
2023-09-03T19:59:20.558Z,3.9
2023-09-03T20:01:22.325Z,3.8
2023-09-03T20:05:42.915Z,3.8
2023-09-03T20:10:42.461Z,3.6
2023-09-03T20:15:42.643Z,3.5
2023-09-03T20:20:43.424Z,3.4
2023-09-03T20:25:43.021Z,3.3
2023-09-03T20:30:41.501Z,3.3
2023-09-03T20:35:41.794Z,3.3
2023-09-03T20:40:41.572Z,3.5
2023-09-03T20:45:41.430Z,3.4
2023-09-03T20:50:40.992Z,3.1
2023-09-03T20:55:41.215Z,3.2
2023-09-03T21:05:00.781Z,2.9
2023-09-03T21:09:59.241Z,3.1
2023-09-03T21:14:59.476Z,2.9
2023-09-03T21:19:59.154Z,3.1
2023-09-03T21:24:59.239Z,3.1
2023-09-03T21:29:58.623Z,2.7
2023-09-03T21:35:03.873Z,2.8
2023-09-03T21:39:58.896Z,2.7
2023-09-03T21:49:58.478Z,2.9
2023-09-03T21:54:55.791Z,2.6
2023-09-03T21:59:38.218Z,2.8
2023-09-03T22:04:48.012Z,2.7
2023-09-03T22:09:38.249Z,2.7
2023-09-03T22:14:37.850Z,2.2
2023-09-03T22:19:55.801Z,2.2
2023-09-03T22:24:38.192Z,2.3
2023-09-03T22:29:37.986Z,2
2023-09-03T22:34:35.921Z,1.5
2023-09-03T22:44:34.884Z,1.3
2023-09-03T22:49:35.163Z,1.3
2023-09-03T22:54:34.646Z,1.3
2023-09-03T22:59:34.610Z,1.4
2023-09-03T23:04:34.946Z,1.3
2023-09-03T23:09:34.505Z,1.5
2023-09-03T23:14:35.552Z,1.5
2023-09-03T23:19:31.768Z,1.2
2023-09-03T23:24:31.302Z,1.5
2023-09-03T23:29:31.124Z,1.4
2023-09-03T23:39:31.100Z,1.3
2023-09-03T23:44:31.195Z,1.3
2023-09-03T23:49:31.535Z,1.4
2023-09-03T23:54:31.525Z,1.5
2023-09-03T23:59:30.056Z,1.4
